createdAt,value
2019-02-18T00:00:38.659Z,5.00
2019-02-18T00:03:08.365Z,4.90
2019-02-18T00:05:37.656Z,4.80
2019-02-18T00:08:06.980Z,4.90
2019-02-18T00:10:36.306Z,4.90
2019-02-18T00:13:05.643Z,4.80
2019-02-18T00:15:34.942Z,4.50
2019-02-18T00:18:04.288Z,4.40
2019-02-18T00:20:33.666Z,4.40
2019-02-18T00:23:03.006Z,4.60
2019-02-18T00:25:32.317Z,4.60
2019-02-18T00:28:01.647Z,4.60
2019-02-18T00:30:31.984Z,4.60
2019-02-18T00:33:01.317Z,4.60
2019-02-18T00:35:30.605Z,4.60
2019-02-18T00:37:59.914Z,4.60
2019-02-18T00:40:29.244Z,4.60
2019-02-18T00:42:58.558Z,4.60
2019-02-18T00:45:27.925Z,4.50
2019-02-18T00:47:57.241Z,4.30
2019-02-18T00:50:26.554Z,4.40
2019-02-18T00:52:55.861Z,4.40
2019-02-18T00:55:25.174Z,4.20
2019-02-18T00:57:54.485Z,4.10
2019-02-18T01:00:23.848Z,4.20
2019-02-18T01:02:53.158Z,4.40
2019-02-18T01:05:22.484Z,4.40
2019-02-18T01:07:51.982Z,4.50
2019-02-18T01:10:21.307Z,4.30
2019-02-18T01:12:50.618Z,4.10
2019-02-18T01:15:19.939Z,4.00
2019-02-18T01:17:49.264Z,4.00
2019-02-18T01:20:18.658Z,4.00
2019-02-18T01:22:47.949Z,4.00
2019-02-18T01:25:17.282Z,4.00
2019-02-18T01:27:46.611Z,4.00
2019-02-18T01:30:16.962Z,4.00
2019-02-18T01:32:46.287Z,4.00
2019-02-18T01:35:15.590Z,4.00
2019-02-18T01:37:46.241Z,4.00
2019-02-18T01:40:16.038Z,3.90
2019-02-18T01:42:45.349Z,3.90
2019-02-18T01:45:15.050Z,4.00
2019-02-18T01:47:44.362Z,4.00
2019-02-18T01:50:26.202Z,4.00
2019-02-18T01:52:55.494Z,4.00
2019-02-18T01:55:24.814Z,3.90
2019-02-18T01:57:54.123Z,4.00
2019-02-18T02:00:23.506Z,3.90
2019-02-18T02:02:52.823Z,3.80
2019-02-18T02:05:22.274Z,3.70
2019-02-18T02:07:56.388Z,3.70
2019-02-18T02:10:22.646Z,3.60
2019-02-18T02:12:53.490Z,3.70
2019-02-18T02:15:26.355Z,3.80
2019-02-18T02:17:55.662Z,3.80
2019-02-18T02:20:24.973Z,3.70
2019-02-18T02:22:54.280Z,3.60
2019-02-18T02:25:23.662Z,3.60
2019-02-18T02:27:52.969Z,3.40
2019-02-18T02:30:22.312Z,3.40
2019-02-18T02:32:51.652Z,3.50
2019-02-18T02:35:20.978Z,3.50
2019-02-18T02:37:50.358Z,3.50
2019-02-18T02:40:19.652Z,3.40
2019-02-18T02:42:48.971Z,3.40
2019-02-18T02:45:18.307Z,3.40
2019-02-18T02:47:47.651Z,3.40
2019-02-18T02:50:16.971Z,3.40
2019-02-18T02:52:46.335Z,3.40
2019-02-18T02:55:15.634Z,3.40
2019-02-18T02:57:44.962Z,3.30
2019-02-18T03:00:15.507Z,3.40
2019-02-18T03:02:44.811Z,3.40
2019-02-18T03:05:14.193Z,3.40
2019-02-18T03:07:43.592Z,3.40
2019-02-18T03:10:13.691Z,3.30
2019-02-18T03:12:43.015Z,3.20
2019-02-18T03:15:18.289Z,3.20
2019-02-18T03:17:47.643Z,3.10
2019-02-18T03:20:17.000Z,3.30
2019-02-18T03:22:46.318Z,3.20
2019-02-18T03:25:29.167Z,3.20
2019-02-18T03:28:05.144Z,3.20
2019-02-18T03:30:43.656Z,3.10
2019-02-18T03:33:18.900Z,3.20
2019-02-18T03:35:48.209Z,3.30
2019-02-18T03:38:17.524Z,3.20
2019-02-18T03:40:46.826Z,3.20
2019-02-18T03:43:16.286Z,3.10
2019-02-18T03:45:45.592Z,3.10
2019-02-18T03:48:14.919Z,3.10
2019-02-18T03:50:44.228Z,3.20
2019-02-18T03:53:13.551Z,3.10
2019-02-18T03:55:42.922Z,2.90
2019-02-18T03:58:12.488Z,3.00
2019-02-18T04:00:41.871Z,3.00
2019-02-18T04:03:11.550Z,3.00
2019-02-18T04:05:41.026Z,2.90
2019-02-18T04:08:10.347Z,3.00
2019-02-18T04:10:39.650Z,3.00
2019-02-18T04:13:08.947Z,3.10
2019-02-18T04:15:38.342Z,3.20
2019-02-18T04:18:07.645Z,3.10
2019-02-18T04:20:36.961Z,3.00
2019-02-18T04:23:06.274Z,2.80
2019-02-18T04:25:35.593Z,2.70
2019-02-18T04:28:04.984Z,2.70
2019-02-18T04:30:34.305Z,2.70
2019-02-18T04:33:03.650Z,2.70
2019-02-18T04:35:32.965Z,2.80
2019-02-18T04:38:02.283Z,2.90
2019-02-18T04:40:31.606Z,2.80
2019-02-18T04:43:00.915Z,2.80
2019-02-18T04:45:30.311Z,2.90
2019-02-18T04:47:59.627Z,2.80
2019-02-18T04:50:28.938Z,2.70
2019-02-18T04:52:58.273Z,2.60
2019-02-18T04:55:27.574Z,2.60
2019-02-18T04:57:56.884Z,2.50
2019-02-18T05:00:26.223Z,2.50
2019-02-18T05:02:55.524Z,2.50
2019-02-18T05:05:25.031Z,2.40
2019-02-18T05:07:54.346Z,2.50
2019-02-18T05:10:24.055Z,2.70
2019-02-18T05:12:53.386Z,2.60
2019-02-18T05:15:22.743Z,2.60
2019-02-18T05:17:52.100Z,2.50
2019-02-18T05:20:21.503Z,2.60
2019-02-18T05:22:50.898Z,2.70
2019-02-18T05:25:20.217Z,2.70
2019-02-18T05:27:49.539Z,2.60
2019-02-18T05:30:18.906Z,2.50
2019-02-18T05:32:48.277Z,2.50
2019-02-18T05:35:17.595Z,2.50
2019-02-18T05:37:47.055Z,2.30
2019-02-18T05:40:16.401Z,2.30
2019-02-18T05:42:45.729Z,2.30
2019-02-18T05:45:15.042Z,2.30
2019-02-18T05:47:44.361Z,2.40
2019-02-18T05:50:13.771Z,2.30
2019-02-18T05:52:43.082Z,2.40
2019-02-18T05:55:12.755Z,2.40
2019-02-18T05:57:43.139Z,2.30
2019-02-18T06:00:13.238Z,2.30
2019-02-18T06:02:42.563Z,2.30
2019-02-18T06:05:11.880Z,2.30
2019-02-18T06:07:41.263Z,2.40
2019-02-18T06:10:10.711Z,2.40
2019-02-18T06:12:40.026Z,2.30
2019-02-18T06:15:10.103Z,2.40
2019-02-18T06:17:39.413Z,2.40
2019-02-18T06:20:09.401Z,2.30
2019-02-18T06:22:39.025Z,2.30
2019-02-18T06:25:08.442Z,2.40
2019-02-18T06:27:37.729Z,2.40
2019-02-18T06:30:09.889Z,2.40
2019-02-18T06:32:39.211Z,2.40
2019-02-18T06:35:08.755Z,2.40
2019-02-18T06:37:38.080Z,2.20
2019-02-18T06:40:08.949Z,2.20
2019-02-18T06:42:38.334Z,2.20
2019-02-18T06:45:12.028Z,2.20
2019-02-18T06:47:41.519Z,2.20
2019-02-18T06:50:11.134Z,2.30
2019-02-18T06:52:40.463Z,2.20
2019-02-18T06:55:09.784Z,2.30
2019-02-18T06:57:40.861Z,2.40
2019-02-18T07:00:12.038Z,2.30
2019-02-18T07:02:42.990Z,2.20
2019-02-18T07:05:14.047Z,2.30
2019-02-18T07:07:47.685Z,2.30
2019-02-18T07:10:24.641Z,2.40
2019-02-18T07:12:54.070Z,2.40
2019-02-18T07:15:23.387Z,2.30
2019-02-18T07:17:52.755Z,2.40
2019-02-18T07:20:22.058Z,2.40
2019-02-18T07:22:51.388Z,2.50
2019-02-18T07:25:20.711Z,2.50
2019-02-18T07:27:50.100Z,2.70
2019-02-18T07:30:19.399Z,2.70
2019-02-18T07:32:48.731Z,2.80
2019-02-18T07:35:18.043Z,2.90
2019-02-18T07:37:47.393Z,2.80
2019-02-18T07:40:16.703Z,2.80
2019-02-18T07:42:46.071Z,2.80
2019-02-18T07:45:15.450Z,2.90
2019-02-18T07:47:44.787Z,2.90
2019-02-18T07:50:20.588Z,3.00
2019-02-18T07:52:45.190Z,3.00
2019-02-18T07:55:14.513Z,3.00
2019-02-18T07:57:43.996Z,3.00
2019-02-18T08:00:14.677Z,3.10
2019-02-18T08:02:43.993Z,3.40
2019-02-18T08:05:13.329Z,3.60
2019-02-18T08:07:42.638Z,3.50
2019-02-18T08:10:12.652Z,3.50
2019-02-18T08:12:42.129Z,3.70
2019-02-18T08:15:11.695Z,3.90
2019-02-18T08:17:41.006Z,3.90
2019-02-18T08:20:11.277Z,4.00
2019-02-18T08:22:40.573Z,4.00
2019-02-18T08:25:12.031Z,4.00
2019-02-18T08:27:41.328Z,4.00
2019-02-18T08:30:12.969Z,4.00
2019-02-18T08:32:42.286Z,4.20
2019-02-18T08:35:11.669Z,4.30
2019-02-18T08:37:40.962Z,4.30
2019-02-18T08:40:10.286Z,4.30
2019-02-18T08:42:39.698Z,4.50
2019-02-18T08:45:11.668Z,4.50
2019-02-18T08:47:40.978Z,4.70
2019-02-18T08:50:13.427Z,4.80
2019-02-18T08:52:42.738Z,4.80
2019-02-18T08:55:13.711Z,4.90
2019-02-18T08:57:43.033Z,5.00
2019-02-18T09:00:15.089Z,5.00
2019-02-18T09:02:44.403Z,5.00
2019-02-18T09:05:13.819Z,5.20
2019-02-18T09:07:43.252Z,5.30
2019-02-18T09:10:14.307Z,5.40
2019-02-18T09:12:43.618Z,5.60
2019-02-18T09:15:14.233Z,5.70
2019-02-18T09:17:43.895Z,5.80
2019-02-18T09:20:13.269Z,6.00
2019-02-18T09:22:59.353Z,6.20
2019-02-18T09:25:30.315Z,6.30
2019-02-18T09:27:59.622Z,6.50
2019-02-18T09:30:30.654Z,6.80
2019-02-18T09:32:59.990Z,6.90
2019-02-18T09:35:29.328Z,7.10
2019-02-18T09:37:58.628Z,7.20
2019-02-18T09:40:27.932Z,7.40
2019-02-18T09:42:57.255Z,7.60
2019-02-18T09:45:26.568Z,7.70
2019-02-18T09:47:55.892Z,7.80
2019-02-18T09:50:25.177Z,8.00
2019-02-18T09:52:54.486Z,8.20
2019-02-18T09:55:23.842Z,8.40
2019-02-18T09:57:53.163Z,8.60
2019-02-18T10:00:22.465Z,8.80
2019-02-18T10:02:51.770Z,8.60
2019-02-18T10:05:21.084Z,8.80
2019-02-18T10:07:50.411Z,9.00
2019-02-18T10:10:19.733Z,9.30
2019-02-18T10:12:49.042Z,9.50
2019-02-18T10:15:18.397Z,9.80
2019-02-18T10:17:49.075Z,10.50
2019-02-18T10:20:18.375Z,14.90
2019-02-18T10:22:47.711Z,19.60
2019-02-18T10:25:17.024Z,27.00
2019-02-18T12:55:00.389Z,39.70
2019-02-18T12:57:30.128Z,39.40
2019-02-18T13:02:31.062Z,39.50
2019-02-18T13:05:00.429Z,39.60
2019-02-18T13:07:29.897Z,39.40
2019-02-18T13:09:59.528Z,39.40
2019-02-18T13:12:30.443Z,39.40
2019-02-18T13:15:00.337Z,39.30
2019-02-18T13:17:29.743Z,38.90
2019-02-18T13:19:59.059Z,38.50
2019-02-18T13:22:28.361Z,38.00
2019-02-18T13:24:57.816Z,38.20
2019-02-18T13:27:27.114Z,38.60
2019-02-18T13:29:56.443Z,38.50
2019-02-18T13:32:26.123Z,38.50
2019-02-18T13:34:55.425Z,38.40
2019-02-18T13:37:24.766Z,38.00
2019-02-18T13:39:54.143Z,37.40
2019-02-18T13:42:23.454Z,36.90
2019-02-18T13:44:52.850Z,36.70
2019-02-18T13:47:22.418Z,36.70
2019-02-18T13:49:51.771Z,36.80
2019-02-18T13:52:21.093Z,36.00
2019-02-18T13:54:50.467Z,35.60
2019-02-18T13:57:19.821Z,34.40
2019-02-18T13:59:49.128Z,31.70
2019-02-18T14:02:18.817Z,29.10
2019-02-18T14:04:48.186Z,28.60
2019-02-18T14:07:17.498Z,29.40
2019-02-18T14:09:46.809Z,30.50
2019-02-18T14:12:16.539Z,31.30
2019-02-18T14:14:46.382Z,31.90
2019-02-18T14:17:16.070Z,32.20
2019-02-18T14:19:45.365Z,32.40
2019-02-18T14:22:14.753Z,32.50
2019-02-18T14:24:44.068Z,32.70
2019-02-18T14:27:13.394Z,32.40
2019-02-18T14:29:42.759Z,32.40
2019-02-18T14:32:18.863Z,32.00
2019-02-18T14:34:48.166Z,31.80
2019-02-18T14:37:17.496Z,31.40
2019-02-18T14:39:46.871Z,30.90
2019-02-18T14:45:12.678Z,30.20
2019-02-18T14:47:41.990Z,29.80
2019-02-18T14:50:11.514Z,29.40
2019-02-18T14:52:40.835Z,28.90
2019-02-18T14:55:10.206Z,27.80
2019-02-18T14:57:39.565Z,26.30
2019-02-18T15:00:16.207Z,24.90
2019-02-18T15:02:45.521Z,23.80
2019-02-18T15:05:15.361Z,22.90
2019-02-18T15:07:44.946Z,22.10
2019-02-18T15:10:15.408Z,21.60
2019-02-18T15:12:45.859Z,21.20
2019-02-18T15:15:15.778Z,20.70
2019-02-18T15:17:45.274Z,20.30
2019-02-18T15:20:15.658Z,19.90
2019-02-18T15:22:44.978Z,19.70
2019-02-18T15:25:14.551Z,19.40
2019-02-18T15:27:43.938Z,19.10
2019-02-18T15:30:17.015Z,18.90
2019-02-18T15:32:46.409Z,18.60
2019-02-18T15:35:16.321Z,18.20
2019-02-18T15:37:45.874Z,18.00
2019-02-18T15:40:17.212Z,17.90
2019-02-18T15:42:46.514Z,17.80
2019-02-18T15:45:15.987Z,17.50
2019-02-18T15:47:45.322Z,17.30
2019-02-18T15:50:14.986Z,17.10
2019-02-18T15:52:44.301Z,17.00
2019-02-18T15:55:14.678Z,16.80
2019-02-18T15:57:43.994Z,16.60
2019-02-18T16:00:16.114Z,16.30
2019-02-18T16:02:45.444Z,16.10
2019-02-18T16:05:14.760Z,15.90
2019-02-18T16:07:44.141Z,15.60
2019-02-18T16:10:13.794Z,15.30
2019-02-18T16:12:50.455Z,15.10
2019-02-18T16:15:14.358Z,14.90
2019-02-18T16:17:44.061Z,14.80
2019-02-18T16:20:14.190Z,14.80
2019-02-18T16:22:43.495Z,14.60
2019-02-18T16:25:15.834Z,14.40
2019-02-18T16:27:45.213Z,14.20
2019-02-18T16:30:15.750Z,14.00
2019-02-18T16:32:45.354Z,13.90
2019-02-18T16:35:14.677Z,13.70
2019-02-18T16:37:43.978Z,13.60
2019-02-18T16:40:15.806Z,13.40
2019-02-18T16:42:45.250Z,13.40
2019-02-18T16:45:15.114Z,13.40
2019-02-18T16:47:45.534Z,13.30
2019-02-18T16:50:14.948Z,13.20
2019-02-18T16:52:44.254Z,13.10
2019-02-18T16:55:15.341Z,12.90
2019-02-18T16:57:45.847Z,12.90
2019-02-18T17:00:23.175Z,12.70
2019-02-18T17:02:52.767Z,12.70
2019-02-18T17:05:22.082Z,12.70
2019-02-18T17:07:51.382Z,12.70
2019-02-18T17:10:20.774Z,12.50
2019-02-18T17:12:50.638Z,12.30
2019-02-18T17:15:20.043Z,12.10
2019-02-18T17:17:49.462Z,12.00
2019-02-18T17:20:18.856Z,11.90
2019-02-18T17:22:48.171Z,11.80
2019-02-18T17:25:17.491Z,11.90
2019-02-18T17:27:47.177Z,11.80
2019-02-18T17:30:16.870Z,11.60
2019-02-18T17:32:46.174Z,11.60
2019-02-18T17:35:15.674Z,11.60
2019-02-18T17:37:45.018Z,11.50
2019-02-18T17:40:14.922Z,11.30
2019-02-18T17:42:44.514Z,11.20
2019-02-18T17:45:17.981Z,11.20
2019-02-18T17:47:47.298Z,11.10
2019-02-18T17:50:17.428Z,11.10
2019-02-18T17:52:47.185Z,11.20
2019-02-18T17:55:17.861Z,11.20
2019-02-18T17:57:47.206Z,11.00
2019-02-18T18:00:25.912Z,10.90
2019-02-18T18:02:56.354Z,10.80
2019-02-18T18:05:25.833Z,10.70
2019-02-18T18:07:55.407Z,10.60
2019-02-18T18:10:25.239Z,10.70
2019-02-18T18:12:54.545Z,10.60
2019-02-18T18:15:23.882Z,10.30
2019-02-18T18:17:53.261Z,10.20
2019-02-18T18:20:22.698Z,10.10
2019-02-18T18:22:52.086Z,10.10
2019-02-18T18:25:21.398Z,10.10
2019-02-18T18:27:50.780Z,10.10
2019-02-18T18:30:20.326Z,10.00
2019-02-18T18:32:49.760Z,9.80
2019-02-18T18:35:19.215Z,9.60
2019-02-18T18:37:48.513Z,9.50
2019-02-18T18:40:19.885Z,9.40
2019-02-18T18:42:49.185Z,9.30
2019-02-18T18:45:18.775Z,9.30
2019-02-18T18:47:48.062Z,9.20
2019-02-18T18:50:21.658Z,9.10
2019-02-18T18:52:50.967Z,9.00
2019-02-18T18:55:20.514Z,8.90
2019-02-18T18:57:50.041Z,8.90
2019-02-18T19:00:24.181Z,8.90
2019-02-18T19:02:54.044Z,9.00
2019-02-18T19:05:23.649Z,8.90
2019-02-18T19:07:53.364Z,8.90
2019-02-18T19:10:22.794Z,8.80
2019-02-18T19:12:52.202Z,8.70
2019-02-18T19:15:21.950Z,8.70
2019-02-18T19:17:51.457Z,8.60
2019-02-18T19:20:20.869Z,8.70
2019-02-18T19:23:02.625Z,8.70
2019-02-18T19:25:31.931Z,8.70
2019-02-18T19:28:01.412Z,8.70
2019-02-18T19:30:33.385Z,8.50
2019-02-18T19:33:02.798Z,8.50
2019-02-18T19:35:32.156Z,8.30
2019-02-18T19:38:01.724Z,8.30
2019-02-18T19:40:31.066Z,8.40
2019-02-18T19:43:00.498Z,8.20
2019-02-18T19:45:29.802Z,8.10
2019-02-18T19:47:59.131Z,8.00
2019-02-18T19:50:28.638Z,8.00
2019-02-18T19:52:58.026Z,8.00
2019-02-18T19:55:28.391Z,7.90
2019-02-18T19:57:58.206Z,7.80
2019-02-18T20:00:27.526Z,7.80
2019-02-18T20:02:56.922Z,7.80
2019-02-18T20:05:26.274Z,7.80
2019-02-18T20:07:55.610Z,7.80
2019-02-18T20:10:25.982Z,7.90
2019-02-18T20:12:55.774Z,7.90
2019-02-18T20:15:25.066Z,7.90
2019-02-18T20:17:54.390Z,7.70
2019-02-18T20:20:23.711Z,7.60
2019-02-18T20:22:53.118Z,7.60
2019-02-18T20:25:22.535Z,7.40
2019-02-18T20:27:51.897Z,7.30
2019-02-18T20:30:21.255Z,7.40
2019-02-18T20:32:50.576Z,7.40
2019-02-18T20:35:19.878Z,7.30
2019-02-18T20:37:49.383Z,7.10
2019-02-18T20:40:18.687Z,6.90
2019-02-18T20:42:48.076Z,7.00
2019-02-18T20:45:17.450Z,7.00
2019-02-18T20:47:46.747Z,7.00
2019-02-18T20:50:16.429Z,6.70
2019-02-18T20:52:45.838Z,6.50
2019-02-18T20:55:15.894Z,6.40
2019-02-18T20:57:45.283Z,6.50
2019-02-18T21:00:17.379Z,6.50
2019-02-18T21:02:46.792Z,6.40
2019-02-18T21:05:16.169Z,6.40
2019-02-18T21:07:45.503Z,6.40
2019-02-18T21:10:20.235Z,6.30
2019-02-18T21:12:49.658Z,6.20
2019-02-18T21:15:19.010Z,6.30
2019-02-18T21:17:48.321Z,6.40
2019-02-18T21:20:17.652Z,6.50
2019-02-18T21:22:47.491Z,6.40
2019-02-18T21:25:16.886Z,6.40
2019-02-18T21:27:46.309Z,6.40
2019-02-18T21:30:16.866Z,6.30
2019-02-18T21:32:46.206Z,6.10
2019-02-18T21:35:15.888Z,5.90
2019-02-18T21:37:45.574Z,5.80
2019-02-18T21:40:14.914Z,5.80
2019-02-18T21:42:44.419Z,5.80
2019-02-18T21:45:14.982Z,5.70
2019-02-18T21:47:44.303Z,5.90
2019-02-18T21:50:13.962Z,6.00
2019-02-18T21:52:43.288Z,5.90
2019-02-18T21:55:13.226Z,5.90
2019-02-18T21:57:42.551Z,5.90
2019-02-18T22:00:18.298Z,5.70
2019-02-18T22:02:47.870Z,5.50
2019-02-18T22:05:17.559Z,5.60
2019-02-18T22:07:47.022Z,5.70
2019-02-18T22:10:16.381Z,5.70
2019-02-18T22:12:45.702Z,5.60
2019-02-18T22:15:15.657Z,5.60
2019-02-18T22:17:45.005Z,5.50
2019-02-18T22:20:14.710Z,5.60
2019-02-18T22:22:44.104Z,5.50
2019-02-18T22:25:13.862Z,5.70
2019-02-18T22:27:43.633Z,5.50
2019-02-18T22:30:14.830Z,5.50
2019-02-18T22:32:45.163Z,5.50
2019-02-18T22:35:14.865Z,5.40
2019-02-18T22:37:44.186Z,5.30
2019-02-18T22:40:14.131Z,5.30
2019-02-18T22:42:43.470Z,5.40
2019-02-18T22:45:13.183Z,5.30
2019-02-18T22:47:42.482Z,5.10
2019-02-18T22:50:12.573Z,5.10
2019-02-18T22:52:41.883Z,5.10
2019-02-18T22:55:11.486Z,5.10
2019-02-18T22:57:40.777Z,4.90
2019-02-18T23:00:16.255Z,4.80
2019-02-18T23:02:47.270Z,5.00
2019-02-18T23:05:16.934Z,5.10
2019-02-18T23:07:46.306Z,5.00
2019-02-18T23:10:15.637Z,4.90
2019-02-18T23:12:44.942Z,4.90
2019-02-18T23:15:14.261Z,5.00
2019-02-18T23:17:43.595Z,5.00
2019-02-18T23:20:13.396Z,4.90
2019-02-18T23:22:42.726Z,4.80
2019-02-18T23:25:12.156Z,4.80
2019-02-18T23:27:41.531Z,4.70
2019-02-18T23:30:11.091Z,4.80
2019-02-18T23:32:40.385Z,4.80
2019-02-18T23:35:09.850Z,4.80
2019-02-18T23:37:39.244Z,4.70
2019-02-18T23:40:08.628Z,4.50
2019-02-18T23:42:38.086Z,4.50
2019-02-18T23:45:07.402Z,4.50
2019-02-18T23:47:36.705Z,4.50
2019-02-18T23:50:07.059Z,4.40
2019-02-18T23:52:36.360Z,4.40
2019-02-18T23:55:06.276Z,4.40
2019-02-18T23:57:35.670Z,4.40
